aviador You're here:

LFRI Decoded Metar

LA ROCHE-SUR-YON in FRANCE
Report Time2017-11-25 07:00:00
UTC Time2017-11-25 07:36:02
Flight Rules vfr VFR
Wind300° at 10 kt
W.Decomp.*RWY 28: 9.3 kt HW 3.7 kt RCW
W.Rank300° ranks 9
Current wind is above 300° avg. (7.3)
Visibility9999 m
Phenomena:N/A
Clouds:N/A
Expected CloudBase > 800 ft AGL from Temp-Dew spread
CeilingNone
Temp05°C (ISA -9)
Dew Point03°C (87% RH)
AAT-0.1°C
QNH1019 hPa
Density Alt-938 ft
Elevation299 ft
Report Wrong Elevation
Raw Report
METAR LFRI 250700Z AUTO 30010KT CAVOK 05/03 Q1019 NOSIG=

Extra information for LFRI:More info

Metar Taf Metar & Taf Last 4 Metars F.Rules Stats Wind Profile Meteogram Temp Stats Airport Information Weather charts Add Link Nearby VenuesMetar ALERT Operation Metar Decoded Social comments